sensor_id;sensor_type;location;lat;lon;timestamp;pressure;altitude;pressure_sealevel;temperature;humidity
73316;BME280;61545;53.726;-0.444;2023-04-20T00:00:05;1024.8;;;7.3;100.0
73316;BME280;61545;53.726;-0.444;2023-04-20T00:05:05;1024.8;;;7.3;100.0
73316;BME280;61545;53.726;-0.444;2023-04-20T00:10:07;1024.7;;;7.3;100.0
73316;BME280;61545;53.726;-0.444;2023-04-20T00:15:05;1024.8;;;7.3;100.0
73316;BME280;61545;53.726;-0.444;2023-04-20T00:20:05;1024.7;;;7.3;100.0
73316;BME280;61545;53.726;-0.444;2023-04-20T00:25:05;1024.7;;;7.1;100.0
73316;BME280;61545;53.726;-0.444;2023-04-20T00:30:05;1024.6;;;7.2;100.0
73316;BME280;61545;53.726;-0.444;2023-04-20T00:35:05;1024.6;;;7.3;100.0
73316;BME280;61545;53.726;-0.444;2023-04-20T00:40:05;1024.6;;;7.2;100.0
73316;BME280;61545;53.726;-0.444;2023-04-20T00:45:05;1024.5;;;7.2;100.0
73316;BME280;61545;53.726;-0.444;2023-04-20T00:50:05;1024.5;;;7.1;100.0
73316;BME280;61545;53.726;-0.444;2023-04-20T00:55:05;1024.5;;;7.1;100.0
73316;BME280;61545;53.726;-0.444;2023-04-20T01:00:06;1024.4;;;7.1;100.0
73316;BME280;61545;53.726;-0.444;2023-04-20T01:05:05;1024.4;;;7.2;100.0
73316;BME280;61545;53.726;-0.444;2023-04-20T01:10:05;1024.3;;;7.2;100.0
73316;BME280;61545;53.726;-0.444;2023-04-20T01:15:05;1024.2;;;7.1;100.0
73316;BME280;61545;53.726;-0.444;2023-04-20T01:20:05;1024.2;;;7.1;100.0
73316;BME280;61545;53.726;-0.444;2023-04-20T01:25:05;1024.2;;;7.0;100.0
73316;BME280;61545;53.726;-0.444;2023-04-20T01:30:05;1024.1;;;6.9;100.0
73316;BME280;61545;53.726;-0.444;2023-04-20T01:35:05;1024.1;;;7.0;100.0
73316;BME280;61545;53.726;-0.444;2023-04-20T01:40:07;1024.1;;;6.9;100.0
73316;BME280;61545;53.726;-0.444;2023-04-20T01:45:05;1024.1;;;7.0;100.0
73316;BME280;61545;53.726;-0.444;2023-04-20T01:50:05;1024.1;;;6.7;100.0
73316;BME280;61545;53.726;-0.444;2023-04-20T01:55:05;1024.0;;;6.8;100.0
73316;BME280;61545;53.726;-0.444;2023-04-20T02:00:06;1024.0;;;6.7;100.0
73316;BME280;61545;53.726;-0.444;2023-04-20T02:05:05;1023.9;;;6.8;100.0
73316;BME280;61545;53.726;-0.444;2023-04-20T02:10:05;1023.9;;;6.8;100.0
73316;BME280;61545;53.726;-0.444;2023-04-20T02:15:05;1023.9;;;6.8;100.0
73316;BME280;61545;53.726;-0.444;2023-04-20T02:20:05;1023.9;;;6.8;100.0
73316;BME280;61545;53.726;-0.444;2023-04-20T02:25:05;1023.9;;;6.7;100.0
73316;BME280;61545;53.726;-0.444;2023-04-20T02:30:05;1023.8;;;6.7;100.0
73316;BME280;61545;53.726;-0.444;2023-04-20T02:35:05;1023.8;;;6.6;100.0
73316;BME280;61545;53.726;-0.444;2023-04-20T02:40:05;1023.8;;;6.7;100.0
73316;BME280;61545;53.726;-0.444;2023-04-20T02:45:05;1023.7;;;6.7;100.0
73316;BME280;61545;53.726;-0.444;2023-04-20T02:50:05;1023.8;;;6.6;100.0
73316;BME280;61545;53.726;-0.444;2023-04-20T02:55:05;1023.7;;;6.7;100.0
73316;BME280;61545;53.726;-0.444;2023-04-20T03:00:05;1023.8;;;6.7;100.0
73316;BME280;61545;53.726;-0.444;2023-04-20T03:05:05;1023.8;;;6.6;100.0
73316;BME280;61545;53.726;-0.444;2023-04-20T03:10:05;1023.7;;;6.5;100.0
73316;BME280;61545;53.726;-0.444;2023-04-20T03:15:05;1023.8;;;6.6;100.0
73316;BME280;61545;53.726;-0.444;2023-04-20T03:20:05;1023.7;;;6.7;100.0
73316;BME280;61545;53.726;-0.444;2023-04-20T03:25:05;1023.6;;;6.5;100.0
73316;BME280;61545;53.726;-0.444;2023-04-20T03:30:05;1023.6;;;6.6;100.0
73316;BME280;61545;53.726;-0.444;2023-04-20T03:35:05;1023.6;;;6.7;100.0
73316;BME280;61545;53.726;-0.444;2023-04-20T03:40:05;1023.7;;;6.6;100.0
73316;BME280;61545;53.726;-0.444;2023-04-20T03:45:05;1023.7;;;6.5;100.0
73316;BME280;61545;53.726;-0.444;2023-04-20T03:50:05;1023.7;;;6.3;100.0
73316;BME280;61545;53.726;-0.444;2023-04-20T03:55:05;1023.8;;;6.3;100.0
73316;BME280;61545;53.726;-0.444;2023-04-20T04:00:05;1023.7;;;6.3;100.0
73316;BME280;61545;53.726;-0.444;2023-04-20T04:05:05;1023.7;;;6.4;100.0
73316;BME280;61545;53.726;-0.444;2023-04-20T04:10:05;1023.7;;;6.3;100.0
73316;BME280;61545;53.726;-0.444;2023-04-20T04:15:05;1023.6;;;6.3;100.0
73316;BME280;61545;53.726;-0.444;2023-04-20T04:20:05;1023.6;;;6.3;100.0
73316;BME280;61545;53.726;-0.444;2023-04-20T04:25:05;1023.6;;;6.3;100.0
73316;BME280;61545;53.726;-0.444;2023-04-20T04:30:05;1023.6;;;6.3;100.0
73316;BME280;61545;53.726;-0.444;2023-04-20T04:35:05;1023.6;;;6.2;100.0
73316;BME280;61545;53.726;-0.444;2023-04-20T04:40:05;1023.6;;;6.2;100.0
73316;BME280;61545;53.726;-0.444;2023-04-20T04:45:05;1023.6;;;6.2;100.0
73316;BME280;61545;53.726;-0.444;2023-04-20T04:50:05;1023.6;;;6.2;100.0
73316;BME280;61545;53.726;-0.444;2023-04-20T04:55:05;1023.6;;;6.2;100.0
73316;BME280;61545;53.726;-0.444;2023-04-20T05:00:05;1023.6;;;6.3;100.0
73316;BME280;61545;53.726;-0.444;2023-04-20T05:05:05;1023.7;;;6.2;100.0
73316;BME280;61545;53.726;-0.444;2023-04-20T05:10:06;1023.7;;;6.3;100.0
73316;BME280;61545;53.726;-0.444;2023-04-20T05:15:05;1023.7;;;6.3;100.0
73316;BME280;61545;53.726;-0.444;2023-04-20T05:20:05;1023.8;;;6.3;100.0
73316;BME280;61545;53.726;-0.444;2023-04-20T05:25:05;1023.7;;;6.5;100.0
73316;BME280;61545;53.726;-0.444;2023-04-20T05:30:06;1023.7;;;6.5;100.0
73316;BME280;61545;53.726;-0.444;2023-04-20T05:35:05;1023.7;;;6.5;100.0
73316;BME280;61545;53.726;-0.444;2023-04-20T05:40:05;1023.8;;;6.5;100.0
73316;BME280;61545;53.726;-0.444;2023-04-20T05:45:05;1023.8;;;6.5;100.0
73316;BME280;61545;53.726;-0.444;2023-04-20T05:50:05;1023.8;;;7.2;100.0
73316;BME280;61545;53.726;-0.444;2023-04-20T05:55:05;1023.8;;;7.3;100.0
73316;BME280;61545;53.726;-0.444;2023-04-20T06:00:05;1023.8;;;8.2;100.0
73316;BME280;61545;53.726;-0.444;2023-04-20T06:05:05;1023.7;;;8.0;100.0
73316;BME280;61545;53.726;-0.444;2023-04-20T06:10:05;1023.7;;;8.2;100.0
73316;BME280;61545;53.726;-0.444;2023-04-20T06:15:05;1023.7;;;8.5;100.0
73316;BME280;61545;53.726;-0.444;2023-04-20T06:20:06;1023.6;;;8.9;100.0
73316;BME280;61545;53.726;-0.444;2023-04-20T06:25:05;1023.6;;;9.2;100.0
73316;BME280;61545;53.726;-0.444;2023-04-20T06:30:05;1023.5;;;9.7;100.0
73316;BME280;61545;53.726;-0.444;2023-04-20T06:35:05;1023.5;;;9.7;100.0
73316;BME280;61545;53.726;-0.444;2023-04-20T06:40:05;1023.5;;;10.0;100.0
73316;BME280;61545;53.726;-0.444;2023-04-20T06:45:05;1023.4;;;9.8;100.0
73316;BME280;61545;53.726;-0.444;2023-04-20T06:50:05;1023.5;;;10.6;100.0
73316;BME280;61545;53.726;-0.444;2023-04-20T06:55:05;1023.4;;;11.0;100.0
73316;BME280;61545;53.726;-0.444;2023-04-20T07:00:06;1023.5;;;11.3;100.0
73316;BME280;61545;53.726;-0.444;2023-04-20T07:05:05;1023.5;;;11.5;100.0
73316;BME280;61545;53.726;-0.444;2023-04-20T07:10:05;1023.5;;;11.4;100.0
73316;BME280;61545;53.726;-0.444;2023-04-20T07:15:06;1023.5;;;12.2;100.0
73316;BME280;61545;53.726;-0.444;2023-04-20T07:20:05;1023.5;;;12.2;100.0
73316;BME280;61545;53.726;-0.444;2023-04-20T07:25:07;1023.4;;;12.6;100.0
73316;BME280;61545;53.726;-0.444;2023-04-20T07:30:06;1023.4;;;12.9;100.0
73316;BME280;61545;53.726;-0.444;2023-04-20T07:35:05;1023.3;;;12.4;100.0
73316;BME280;61545;53.726;-0.444;2023-04-20T07:40:05;1023.4;;;12.9;100.0
73316;BME280;61545;53.726;-0.444;2023-04-20T07:45:05;1023.3;;;13.0;100.0
73316;BME280;61545;53.726;-0.444;2023-04-20T07:50:05;1023.3;;;13.5;100.0
73316;BME280;61545;53.726;-0.444;2023-04-20T07:55:05;1023.2;;;13.0;100.0
73316;BME280;61545;53.726;-0.444;2023-04-20T08:00:06;1023.2;;;13.7;100.0
73316;BME280;61545;53.726;-0.444;2023-04-20T08:05:05;1023.1;;;13.0;100.0
73316;BME280;61545;53.726;-0.444;2023-04-20T08:10:05;1023.1;;;12.5;100.0
73316;BME280;61545;53.726;-0.444;2023-04-20T08:15:05;1023.1;;;12.9;100.0
73316;BME280;61545;53.726;-0.444;2023-04-20T08:20:05;1023.1;;;12.5;100.0
73316;BME280;61545;53.726;-0.444;2023-04-20T08:25:05;1023.1;;;12.7;100.0
73316;BME280;61545;53.726;-0.444;2023-04-20T08:30:05;1023.1;;;13.2;100.0
73316;BME280;61545;53.726;-0.444;2023-04-20T08:35:05;1023.0;;;13.2;100.0
73316;BME280;61545;53.726;-0.444;2023-04-20T08:40:06;1023.0;;;12.8;100.0
73316;BME280;61545;53.726;-0.444;2023-04-20T08:45:05;1023.1;;;12.9;100.0
73316;BME280;61545;53.726;-0.444;2023-04-20T08:50:05;1023.0;;;13.7;100.0
73316;BME280;61545;53.726;-0.444;2023-04-20T08:55:05;1022.9;;;13.3;100.0
73316;BME280;61545;53.726;-0.444;2023-04-20T09:00:05;1022.8;;;13.2;100.0
73316;BME280;61545;53.726;-0.444;2023-04-20T09:05:05;1022.8;;;13.3;100.0
73316;BME280;61545;53.726;-0.444;2023-04-20T09:10:05;1022.7;;;13.9;100.0
73316;BME280;61545;53.726;-0.444;2023-04-20T09:15:06;1022.7;;;14.5;100.0
73316;BME280;61545;53.726;-0.444;2023-04-20T09:20:05;1022.5;;;13.0;100.0
73316;BME280;61545;53.726;-0.444;2023-04-20T09:25:12;1022.6;;;13.3;100.0
73316;BME280;61545;53.726;-0.444;2023-04-20T09:30:05;1022.5;;;13.7;100.0
73316;BME280;61545;53.726;-0.444;2023-04-20T09:35:05;1022.4;;;13.4;100.0
73316;BME280;61545;53.726;-0.444;2023-04-20T09:40:05;1022.4;;;13.9;100.0
73316;BME280;61545;53.726;-0.444;2023-04-20T09:45:05;1022.3;;;14.2;100.0
73316;BME280;61545;53.726;-0.444;2023-04-20T09:50:05;1022.3;;;13.9;99.2
73316;BME280;61545;53.726;-0.444;2023-04-20T09:55:06;1022.3;;;13.5;91.7
73316;BME280;61545;53.726;-0.444;2023-04-20T10:00:06;1022.2;;;13.7;81.2
73316;BME280;61545;53.726;-0.444;2023-04-20T10:05:05;1022.3;;;13.9;87.1
73316;BME280;61545;53.726;-0.444;2023-04-20T10:10:06;1022.3;;;13.9;84.9
73316;BME280;61545;53.726;-0.444;2023-04-20T10:15:05;1022.1;;;14.3;84.0
73316;BME280;61545;53.726;-0.444;2023-04-20T10:20:16;1022.1;;;14.2;79.9
73316;BME280;61545;53.726;-0.444;2023-04-20T10:25:13;1022.2;;;14.5;78.7
73316;BME280;61545;53.726;-0.444;2023-04-20T10:30:08;1022.0;;;14.1;77.5
73316;BME280;61545;53.726;-0.444;2023-04-20T10:35:05;1022.1;;;14.0;79.6
73316;BME280;61545;53.726;-0.444;2023-04-20T10:40:05;1021.9;;;13.6;83.3
73316;BME280;61545;53.726;-0.444;2023-04-20T10:45:05;1021.9;;;13.7;85.8
73316;BME280;61545;53.726;-0.444;2023-04-20T10:50:06;1022.0;;;13.4;87.9
73316;BME280;61545;53.726;-0.444;2023-04-20T10:55:05;1021.9;;;13.9;92.1
73316;BME280;61545;53.726;-0.444;2023-04-20T11:00:14;1021.8;;;14.2;93.5
73316;BME280;61545;53.726;-0.444;2023-04-20T11:05:09;1021.9;;;14.0;89.8
73316;BME280;61545;53.726;-0.444;2023-04-20T11:10:05;1021.9;;;14.2;95.3
73316;BME280;61545;53.726;-0.444;2023-04-20T11:15:05;1021.9;;;13.4;100.0
73316;BME280;61545;53.726;-0.444;2023-04-20T11:20:06;1021.9;;;unknown;100.0
73316;BME280;61545;53.726;-0.444;2023-04-20T11:25:06;1021.9;;;12.9;100.0
73316;BME280;61545;53.726;-0.444;2023-04-20T11:30:06;1022.0;;;13.0;100.0
73316;BME280;61545;53.726;-0.444;2023-04-20T11:35:06;1021.9;;;12.9;100.0
73316;BME280;61545;53.726;-0.444;2023-04-20T11:40:05;1021.8;;;13.0;100.0
73316;BME280;61545;53.726;-0.444;2023-04-20T11:45:05;1021.8;;;13.6;100.0
73316;BME280;61545;53.726;-0.444;2023-04-20T11:50:05;1021.7;;;13.2;100.0
73316;BME280;61545;53.726;-0.444;2023-04-20T11:55:05;1021.5;;;13.7;100.0
73316;BME280;61545;53.726;-0.444;2023-04-20T12:00:05;1021.5;;;13.5;100.0
73316;BME280;61545;53.726;-0.444;2023-04-20T12:05:05;1021.5;;;13.5;99.7
73316;BME280;61545;53.726;-0.444;2023-04-20T12:10:05;1021.5;;;13.5;92.3
73316;BME280;61545;53.726;-0.444;2023-04-20T12:15:05;1021.4;;;12.9;89.9
73316;BME280;61545;53.726;-0.444;2023-04-20T12:20:05;1021.3;;;12.7;87.1
73316;BME280;61545;53.726;-0.444;2023-04-20T12:25:05;1021.4;;;12.9;93.2
73316;BME280;61545;53.726;-0.444;2023-04-20T12:30:06;1021.2;;;13.0;91.5
73316;BME280;61545;53.726;-0.444;2023-04-20T12:35:05;1021.1;;;13.4;94.3
73316;BME280;61545;53.726;-0.444;2023-04-20T12:40:05;1021.1;;;13.1;90.3
73316;BME280;61545;53.726;-0.444;2023-04-20T12:45:05;1021.1;;;13.2;90.5
73316;BME280;61545;53.726;-0.444;2023-04-20T12:50:05;1021.0;;;13.2;88.8
73316;BME280;61545;53.726;-0.444;2023-04-20T12:55:05;1021.0;;;12.9;84.7
73316;BME280;61545;53.726;-0.444;2023-04-20T13:00:05;1021.0;;;13.4;86.9
73316;BME280;61545;53.726;-0.444;2023-04-20T13:05:05;1020.9;;;13.1;86.2
73316;BME280;61545;53.726;-0.444;2023-04-20T13:10:05;1020.9;;;12.9;82.6
73316;BME280;61545;53.726;-0.444;2023-04-20T13:15:06;1020.8;;;12.8;83.7
73316;BME280;61545;53.726;-0.444;2023-04-20T13:20:05;1020.8;;;12.9;81.4
73316;BME280;61545;53.726;-0.444;2023-04-20T13:25:05;1020.8;;;13.1;82.0
73316;BME280;61545;53.726;-0.444;2023-04-20T13:30:05;1020.6;;;12.8;78.2
73316;BME280;61545;53.726;-0.444;2023-04-20T13:35:05;1020.6;;;13.0;79.6
73316;BME280;61545;53.726;-0.444;2023-04-20T13:40:06;1020.5;;;13.0;79.8
73316;BME280;61545;53.726;-0.444;2023-04-20T13:45:05;1020.5;;;12.9;79.2
73316;BME280;61545;53.726;-0.444;2023-04-20T13:50:05;1020.5;;;12.7;75.4
73316;BME280;61545;53.726;-0.444;2023-04-20T13:55:05;1020.4;;;12.7;78.2
73316;BME280;61545;53.726;-0.444;2023-04-20T14:00:06;1020.2;;;12.9;77.0
73316;BME280;61545;53.726;-0.444;2023-04-20T14:05:05;1020.1;;;12.7;73.9
73316;BME280;61545;53.726;-0.444;2023-04-20T14:10:05;1020.1;;;13.0;72.5
73316;BME280;61545;53.726;-0.444;2023-04-20T14:15:05;1020.0;;;12.5;75.9
73316;BME280;61545;53.726;-0.444;2023-04-20T14:20:05;1019.9;;;12.7;75.5
73316;BME280;61545;53.726;-0.444;2023-04-20T14:25:05;1020.0;;;unknown;78.0
73316;BME280;61545;53.726;-0.444;2023-04-20T14:30:05;1019.8;;;12.9;74.9
73316;BME280;61545;53.726;-0.444;2023-04-20T14:35:05;1019.7;;;12.9;74.1
73316;BME280;61545;53.726;-0.444;2023-04-20T14:40:05;1019.6;;;13.0;71.7
73316;BME280;61545;53.726;-0.444;2023-04-20T14:45:05;1019.7;;;12.9;72.2
73316;BME280;61545;53.726;-0.444;2023-04-20T14:50:05;1019.6;;;12.3;72.3
73316;BME280;61545;53.726;-0.444;2023-04-20T14:55:05;1019.7;;;12.3;77.8
73316;BME280;61545;53.726;-0.444;2023-04-20T15:00:05;1019.7;;;12.3;85.2
73316;BME280;61545;53.726;-0.444;2023-04-20T15:05:05;1019.7;;;12.2;92.2
73316;BME280;61545;53.726;-0.444;2023-04-20T15:10:05;1019.7;;;12.4;97.9
73316;BME280;61545;53.726;-0.444;2023-04-20T15:15:05;1019.7;;;12.3;100.0
73316;BME280;61545;53.726;-0.444;2023-04-20T15:20:06;1019.6;;;12.3;100.0
73316;BME280;61545;53.726;-0.444;2023-04-20T15:25:05;1019.5;;;12.4;100.0
73316;BME280;61545;53.726;-0.444;2023-04-20T15:30:05;1019.4;;;12.2;100.0
73316;BME280;61545;53.726;-0.444;2023-04-20T15:35:05;1019.4;;;12.5;100.0
73316;BME280;61545;53.726;-0.444;2023-04-20T15:40:05;1019.4;;;12.1;100.0
73316;BME280;61545;53.726;-0.444;2023-04-20T15:45:05;1019.3;;;11.9;100.0
73316;BME280;61545;53.726;-0.444;2023-04-20T15:50:05;1019.3;;;12.0;100.0
73316;BME280;61545;53.726;-0.444;2023-04-20T15:55:05;1019.1;;;11.7;100.0
73316;BME280;61545;53.726;-0.444;2023-04-20T16:00:06;1019.0;;;12.2;100.0
73316;BME280;61545;53.726;-0.444;2023-04-20T16:05:05;1019.0;;;12.2;100.0
73316;BME280;61545;53.726;-0.444;2023-04-20T16:10:06;1019.0;;;12.2;100.0
73316;BME280;61545;53.726;-0.444;2023-04-20T16:15:05;1019.0;;;11.7;100.0
73316;BME280;61545;53.726;-0.444;2023-04-20T16:20:06;1019.1;;;11.2;100.0
73316;BME280;61545;53.726;-0.444;2023-04-20T16:25:05;1019.1;;;11.6;100.0
73316;BME280;61545;53.726;-0.444;2023-04-20T16:30:05;1019.1;;;11.7;100.0
73316;BME280;61545;53.726;-0.444;2023-04-20T16:35:05;1019.0;;;11.7;100.0
73316;BME280;61545;53.726;-0.444;2023-04-20T16:40:05;1019.0;;;11.1;100.0
73316;BME280;61545;53.726;-0.444;2023-04-20T16:45:05;1018.9;;;11.4;100.0
73316;BME280;61545;53.726;-0.444;2023-04-20T16:50:05;1019.1;;;10.8;100.0
73316;BME280;61545;53.726;-0.444;2023-04-20T16:55:05;1019.0;;;10.9;100.0
73316;BME280;61545;53.726;-0.444;2023-04-20T17:00:05;1019.0;;;10.6;100.0
73316;BME280;61545;53.726;-0.444;2023-04-20T17:05:05;1019.1;;;10.7;100.0
73316;BME280;61545;53.726;-0.444;2023-04-20T17:10:05;1018.8;;;10.4;100.0
73316;BME280;61545;53.726;-0.444;2023-04-20T17:15:05;1018.8;;;10.5;100.0
73316;BME280;61545;53.726;-0.444;2023-04-20T17:20:05;1018.9;;;10.4;100.0
73316;BME280;61545;53.726;-0.444;2023-04-20T17:25:05;1018.8;;;10.2;100.0
73316;BME280;61545;53.726;-0.444;2023-04-20T17:30:05;1018.7;;;10.6;100.0
73316;BME280;61545;53.726;-0.444;2023-04-20T17:35:05;1018.7;;;10.0;100.0
73316;BME280;61545;53.726;-0.444;2023-04-20T17:40:05;1018.8;;;9.9;100.0
73316;BME280;61545;53.726;-0.444;2023-04-20T17:45:06;1018.8;;;10.0;100.0
73316;BME280;61545;53.726;-0.444;2023-04-20T17:50:05;1018.9;;;9.8;100.0
73316;BME280;61545;53.726;-0.444;2023-04-20T17:55:05;1019.0;;;9.9;100.0
73316;BME280;61545;53.726;-0.444;2023-04-20T18:00:05;1019.0;;;9.9;100.0
73316;BME280;61545;53.726;-0.444;2023-04-20T18:05:05;1019.1;;;9.7;100.0
73316;BME280;61545;53.726;-0.444;2023-04-20T18:10:05;1019.1;;;9.6;100.0
73316;BME280;61545;53.726;-0.444;2023-04-20T18:15:05;1018.9;;;9.4;100.0
73316;BME280;61545;53.726;-0.444;2023-04-20T18:20:05;1019.0;;;9.4;100.0
73316;BME280;61545;53.726;-0.444;2023-04-20T18:25:05;1019.1;;;9.2;100.0
73316;BME280;61545;53.726;-0.444;2023-04-20T18:30:05;1019.1;;;9.2;100.0
73316;BME280;61545;53.726;-0.444;2023-04-20T18:35:05;1019.0;;;9.2;100.0
73316;BME280;61545;53.726;-0.444;2023-04-20T18:40:06;1019.0;;;9.4;100.0
73316;BME280;61545;53.726;-0.444;2023-04-20T18:45:05;1019.1;;;9.2;100.0
73316;BME280;61545;53.726;-0.444;2023-04-20T18:50:05;1019.1;;;9.2;100.0
73316;BME280;61545;53.726;-0.444;2023-04-20T18:55:06;1019.1;;;9.1;100.0
73316;BME280;61545;53.726;-0.444;2023-04-20T19:00:05;1019.0;;;9.2;100.0
73316;BME280;61545;53.726;-0.444;2023-04-20T19:05:05;1019.0;;;9.0;100.0
73316;BME280;61545;53.726;-0.444;2023-04-20T19:10:05;1019.0;;;9.0;100.0
73316;BME280;61545;53.726;-0.444;2023-04-20T19:15:05;1018.7;;;9.0;100.0
73316;BME280;61545;53.726;-0.444;2023-04-20T19:20:05;1018.8;;;9.0;100.0
73316;BME280;61545;53.726;-0.444;2023-04-20T19:25:05;1018.9;;;9.1;100.0
73316;BME280;61545;53.726;-0.444;2023-04-20T19:30:06;1018.8;;;9.1;100.0
73316;BME280;61545;53.726;-0.444;2023-04-20T19:35:05;1018.9;;;9.0;100.0
73316;BME280;61545;53.726;-0.444;2023-04-20T19:40:05;1018.9;;;8.8;100.0
73316;BME280;61545;53.726;-0.444;2023-04-20T19:45:05;1018.8;;;8.9;100.0
73316;BME280;61545;53.726;-0.444;2023-04-20T19:50:05;1018.8;;;8.7;100.0
73316;BME280;61545;53.726;-0.444;2023-04-20T19:55:05;1018.8;;;9.0;100.0
73316;BME280;61545;53.726;-0.444;2023-04-20T20:00:05;1018.7;;;9.0;100.0
73316;BME280;61545;53.726;-0.444;2023-04-20T20:05:05;1018.7;;;8.7;100.0
73316;BME280;61545;53.726;-0.444;2023-04-20T20:10:05;1018.7;;;8.6;100.0
73316;BME280;61545;53.726;-0.444;2023-04-20T20:15:05;1018.7;;;8.7;100.0
73316;BME280;61545;53.726;-0.444;2023-04-20T20:20:05;1018.7;;;8.4;100.0
73316;BME280;61545;53.726;-0.444;2023-04-20T20:25:05;1018.6;;;8.4;100.0
73316;BME280;61545;53.726;-0.444;2023-04-20T20:30:05;1018.5;;;8.5;100.0
73316;BME280;61545;53.726;-0.444;2023-04-20T20:35:06;1018.5;;;8.7;100.0
73316;BME280;61545;53.726;-0.444;2023-04-20T20:40:05;1018.5;;;8.6;100.0
73316;BME280;61545;53.726;-0.444;2023-04-20T20:45:06;1018.3;;;8.6;100.0
73316;BME280;61545;53.726;-0.444;2023-04-20T20:50:05;1018.2;;;8.7;100.0
73316;BME280;61545;53.726;-0.444;2023-04-20T20:55:05;1018.4;;;8.5;100.0
73316;BME280;61545;53.726;-0.444;2023-04-20T21:00:06;1018.3;;;8.7;100.0
73316;BME280;61545;53.726;-0.444;2023-04-20T21:05:04;1018.4;;;8.5;100.0
73316;BME280;61545;53.726;-0.444;2023-04-20T21:10:05;1018.3;;;8.6;100.0
73316;BME280;61545;53.726;-0.444;2023-04-20T21:15:05;1018.3;;;8.8;100.0
73316;BME280;61545;53.726;-0.444;2023-04-20T21:20:06;1018.3;;;8.9;100.0
73316;BME280;61545;53.726;-0.444;2023-04-20T21:25:05;1018.2;;;8.7;100.0
73316;BME280;61545;53.726;-0.444;2023-04-20T21:30:05;1018.2;;;8.5;100.0
73316;BME280;61545;53.726;-0.444;2023-04-20T21:35:05;1018.1;;;8.4;100.0
73316;BME280;61545;53.726;-0.444;2023-04-20T21:40:05;1018.1;;;8.7;100.0
73316;BME280;61545;53.726;-0.444;2023-04-20T21:45:05;1018.1;;;8.6;100.0
73316;BME280;61545;53.726;-0.444;2023-04-20T21:50:05;1018.1;;;8.7;100.0
73316;BME280;61545;53.726;-0.444;2023-04-20T21:55:05;1018.2;;;8.5;100.0
73316;BME280;61545;53.726;-0.444;2023-04-20T22:00:05;1018.2;;;8.7;100.0
73316;BME280;61545;53.726;-0.444;2023-04-20T22:05:05;1018.2;;;8.7;100.0
73316;BME280;61545;53.726;-0.444;2023-04-20T22:10:06;1018.2;;;8.6;100.0
73316;BME280;61545;53.726;-0.444;2023-04-20T22:15:07;1018.2;;;8.7;100.0
73316;BME280;61545;53.726;-0.444;2023-04-20T22:20:06;1018.2;;;8.6;100.0
73316;BME280;61545;53.726;-0.444;2023-04-20T22:25:05;1018.2;;;8.6;100.0
73316;BME280;61545;53.726;-0.444;2023-04-20T22:30:05;1018.1;;;8.6;100.0
73316;BME280;61545;53.726;-0.444;2023-04-20T22:35:05;1018.0;;;8.4;100.0
73316;BME280;61545;53.726;-0.444;2023-04-20T22:40:06;1018.0;;;8.7;100.0
73316;BME280;61545;53.726;-0.444;2023-04-20T22:45:06;1018.0;;;8.6;100.0
73316;BME280;61545;53.726;-0.444;2023-04-20T22:50:05;1017.9;;;8.5;100.0
73316;BME280;61545;53.726;-0.444;2023-04-20T22:55:06;1018.0;;;8.5;100.0
73316;BME280;61545;53.726;-0.444;2023-04-20T23:00:06;1017.8;;;8.5;100.0
73316;BME280;61545;53.726;-0.444;2023-04-20T23:05:05;1017.8;;;8.6;100.0
73316;BME280;61545;53.726;-0.444;2023-04-20T23:10:06;1017.7;;;8.6;100.0
73316;BME280;61545;53.726;-0.444;2023-04-20T23:15:05;1017.6;;;8.4;100.0
73316;BME280;61545;53.726;-0.444;2023-04-20T23:20:06;1017.6;;;8.4;100.0
73316;BME280;61545;53.726;-0.444;2023-04-20T23:25:05;1017.5;;;8.6;100.0
73316;BME280;61545;53.726;-0.444;2023-04-20T23:30:05;1017.4;;;8.6;100.0
73316;BME280;61545;53.726;-0.444;2023-04-20T23:35:05;1017.4;;;8.5;100.0
73316;BME280;61545;53.726;-0.444;2023-04-20T23:40:06;1017.3;;;8.6;100.0
73316;BME280;61545;53.726;-0.444;2023-04-20T23:45:05;1017.3;;;8.6;100.0
73316;BME280;61545;53.726;-0.444;2023-04-20T23:50:06;1017.2;;;8.7;100.0
73316;BME280;61545;53.726;-0.444;2023-04-20T23:55:05;1017.2;;;8.6;100.0
